createdAt,value
2023-11-25T00:00:23.987Z,6.3
2023-11-25T00:03:24.024Z,7
2023-11-25T00:06:23.981Z,6.2
2023-11-25T00:09:24.006Z,5.8
2023-11-25T00:12:24.020Z,7
2023-11-25T00:15:23.996Z,7.2
2023-11-25T00:18:24.022Z,8.5
2023-11-25T00:21:24.025Z,7.1
2023-11-25T00:24:24.030Z,7.9
2023-11-25T00:27:24.028Z,8
2023-11-25T00:30:24.033Z,5.9
2023-11-25T00:33:24.040Z,5.4
2023-11-25T00:36:24.029Z,6.2
2023-11-25T00:39:24.024Z,6.7
2023-11-25T00:42:24.045Z,6.4
2023-11-25T00:45:24.048Z,4.8
2023-11-25T00:48:24.130Z,8.2
2023-11-25T00:51:24.043Z,8.2
2023-11-25T00:54:24.054Z,4.9
2023-11-25T00:57:24.043Z,6
2023-11-25T01:00:24.182Z,5.9
2023-11-25T01:03:24.120Z,8.9
2023-11-25T01:06:24.054Z,6.4
2023-11-25T01:09:24.059Z,6.9
2023-11-25T01:12:24.067Z,7.7
2023-11-25T01:15:24.070Z,9.3
2023-11-25T01:18:24.096Z,7.9
2023-11-25T01:21:24.088Z,6
2023-11-25T01:24:24.100Z,8.6
2023-11-25T01:27:24.093Z,6.9
2023-11-25T01:30:24.089Z,7.7
2023-11-25T01:33:24.116Z,7.7
2023-11-25T01:36:24.158Z,6.8
2023-11-25T01:39:24.141Z,7.4
2023-11-25T01:42:24.130Z,6.8
2023-11-25T01:45:24.143Z,7.7
2023-11-25T01:48:24.129Z,7.1
2023-11-25T01:51:24.134Z,6.6
2023-11-25T01:54:24.154Z,5.9
2023-11-25T01:57:24.158Z,6.7
2023-11-25T02:00:24.159Z,8
2023-11-25T02:03:24.279Z,4.4
2023-11-25T02:06:24.363Z,6.4
2023-11-25T02:09:24.193Z,8
2023-11-25T02:12:24.209Z,8.3
2023-11-25T02:15:24.198Z,5.8
2023-11-25T02:18:24.225Z,8.5
2023-11-25T02:21:24.229Z,6.5
2023-11-25T02:24:24.257Z,7.5
2023-11-25T02:27:24.254Z,8.1
2023-11-25T02:30:24.250Z,8.2
2023-11-25T02:33:24.265Z,8
2023-11-25T02:36:24.256Z,9.9
2023-11-25T02:39:24.444Z,8
2023-11-25T02:42:24.291Z,9
2023-11-25T02:45:24.311Z,9
2023-11-25T02:48:24.347Z,7.1
2023-11-25T02:51:24.320Z,7.9
2023-11-25T02:54:24.334Z,8.2
2023-11-25T02:57:24.316Z,8.9
2023-11-25T03:00:24.324Z,6.8
2023-11-25T03:03:24.396Z,8.3
2023-11-25T03:06:24.336Z,7.8
2023-11-25T03:09:24.340Z,7.8
2023-11-25T03:12:24.367Z,9.3
2023-11-25T03:15:24.353Z,7.6
2023-11-25T03:18:24.359Z,9.3
2023-11-25T03:21:24.351Z,8.9
2023-11-25T03:24:24.370Z,8.7
2023-11-25T03:27:24.362Z,5.9
2023-11-25T03:30:24.359Z,6.5
2023-11-25T03:33:24.419Z,8.1
2023-11-25T03:36:24.372Z,8.8
2023-11-25T03:39:24.369Z,6.5
2023-11-25T03:42:24.408Z,6.3
2023-11-25T03:45:24.380Z,6.8
2023-11-25T03:48:24.387Z,8.4
2023-11-25T03:51:24.369Z,6.4
2023-11-25T03:54:24.391Z,5.8
2023-11-25T03:57:24.379Z,7.2
2023-11-25T04:00:24.382Z,7.8
2023-11-25T04:03:24.394Z,7.9
2023-11-25T04:06:24.388Z,7.6
2023-11-25T04:09:24.404Z,9.3
2023-11-25T04:12:24.406Z,6.6
2023-11-25T04:15:24.399Z,7
2023-11-25T04:18:24.434Z,5.6
2023-11-25T04:21:24.418Z,8.1
2023-11-25T04:24:24.395Z,7.4
2023-11-25T04:27:24.400Z,6.2
2023-11-25T04:30:24.410Z,8.3
2023-11-25T04:33:24.477Z,7.8
2023-11-25T04:36:24.415Z,5.8
2023-11-25T04:39:24.416Z,7.9
2023-11-25T04:42:24.427Z,9.5
2023-11-25T04:45:24.419Z,7.6
2023-11-25T04:48:24.417Z,7.5
2023-11-25T04:51:24.428Z,9.4
2023-11-25T04:54:24.421Z,9.1
2023-11-25T04:57:24.426Z,8.8
2023-11-25T05:00:24.443Z,9.8
2023-11-25T05:03:24.473Z,9.8
2023-11-25T05:06:24.439Z,7.4
2023-11-25T05:09:24.440Z,11.3
2023-11-25T05:12:24.443Z,10.1
2023-11-25T05:15:24.443Z,11.5
2023-11-25T05:18:24.472Z,7.7
2023-11-25T05:21:24.439Z,8.3
2023-11-25T05:24:24.443Z,7.7
2023-11-25T05:27:24.450Z,10.8
2023-11-25T05:30:24.450Z,8.3
2023-11-25T05:33:24.451Z,8.8
2023-11-25T05:36:24.453Z,8.6
2023-11-25T05:39:24.459Z,15.1
2023-11-25T05:42:24.502Z,11.6
2023-11-25T05:45:24.451Z,10.6
2023-11-25T05:48:24.457Z,8.5
2023-11-25T05:51:24.461Z,12.8
2023-11-25T05:54:24.456Z,9.5
2023-11-25T05:57:24.469Z,10.9
2023-11-25T06:00:24.556Z,9.2
2023-11-25T06:03:24.553Z,8.6
2023-11-25T06:06:24.480Z,11.2
2023-11-25T06:09:24.474Z,9.8
2023-11-25T06:12:24.471Z,8.6
2023-11-25T06:15:24.516Z,8.6
2023-11-25T06:18:24.601Z,7.4
2023-11-25T06:21:24.490Z,10.2
2023-11-25T06:24:24.479Z,12.1
2023-11-25T06:27:24.476Z,9
2023-11-25T06:30:24.495Z,8.9
2023-11-25T06:33:24.501Z,9.7
2023-11-25T06:36:24.490Z,9.9
2023-11-25T06:39:24.499Z,11.4
2023-11-25T06:42:24.501Z,9.6
2023-11-25T06:45:24.489Z,10.3
2023-11-25T06:48:24.489Z,8.4
2023-11-25T06:51:24.501Z,9.1
2023-11-25T06:54:24.481Z,11.9
2023-11-25T06:57:24.514Z,10.2
2023-11-25T07:00:24.602Z,13.6
2023-11-25T07:03:24.525Z,11.2
2023-11-25T07:06:24.501Z,11.7
2023-11-25T07:09:24.503Z,13.4
2023-11-25T07:12:24.506Z,17.1
2023-11-25T07:15:24.503Z,12
2023-11-25T07:18:24.587Z,11
2023-11-25T07:21:24.513Z,11.6
2023-11-25T07:24:24.493Z,11.8
2023-11-25T07:30:24.506Z,12.6
2023-11-25T07:33:24.508Z,12.1
2023-11-25T07:36:24.512Z,11
2023-11-25T07:39:24.515Z,9.9
2023-11-25T07:42:24.531Z,10.3
2023-11-25T07:45:24.520Z,9
2023-11-25T07:48:24.523Z,10.1
2023-11-25T07:51:24.524Z,10.1
2023-11-25T07:54:24.523Z,11.7
2023-11-25T07:57:24.530Z,9.2
2023-11-25T08:00:24.536Z,10.4
2023-11-25T08:03:24.561Z,9.9
2023-11-25T08:06:24.656Z,8.5
2023-11-25T08:09:24.541Z,9.1
2023-11-25T08:12:24.534Z,11.4
2023-11-25T08:15:24.544Z,10.1
2023-11-25T08:18:24.553Z,12.9
2023-11-25T08:21:24.597Z,8.3
2023-11-25T08:24:24.609Z,6.6
2023-11-25T08:27:24.538Z,7.7
2023-11-25T08:30:24.559Z,9.2
2023-11-25T08:33:24.573Z,8.6
2023-11-25T08:36:24.557Z,8.5
2023-11-25T08:39:24.549Z,10.2
2023-11-25T08:42:24.557Z,9.8
2023-11-25T08:45:24.559Z,10.4
2023-11-25T08:48:24.555Z,8.4
2023-11-25T08:51:24.588Z,10.6
2023-11-25T08:54:24.610Z,9.5
2023-11-25T08:57:24.598Z,9.8
2023-11-25T09:00:24.561Z,8.7
2023-11-25T09:03:24.644Z,12.6
2023-11-25T09:06:24.563Z,11.7
2023-11-25T09:09:24.571Z,11.3
2023-11-25T09:12:24.573Z,10.1
2023-11-25T09:15:24.577Z,12.9
2023-11-25T09:18:24.567Z,12.4
2023-11-25T09:21:24.577Z,10.8
2023-11-25T09:24:24.582Z,11.5
2023-11-25T09:27:24.582Z,11.9
2023-11-25T09:30:24.574Z,10
2023-11-25T09:33:24.595Z,10.2
2023-11-25T09:36:24.584Z,12.6
2023-11-25T09:39:24.580Z,12.4
2023-11-25T09:42:24.586Z,15
2023-11-25T09:45:24.585Z,13
2023-11-25T09:48:24.601Z,12.3
2023-11-25T09:51:24.590Z,12
2023-11-25T09:54:24.588Z,8.2
2023-11-25T09:57:24.591Z,10.2
2023-11-25T10:00:24.588Z,9.4
2023-11-25T10:03:24.701Z,9.1
2023-11-25T10:06:24.597Z,7.7
2023-11-25T10:09:24.599Z,10.6
2023-11-25T10:12:24.600Z,8.2
2023-11-25T10:15:24.601Z,10.2
2023-11-25T10:18:24.602Z,8.9
2023-11-25T10:21:24.611Z,9.8
2023-11-25T10:24:24.602Z,9.9
2023-11-25T10:27:24.610Z,10.6
2023-11-25T10:30:24.627Z,9.4
2023-11-25T10:33:24.625Z,9.9
2023-11-25T10:36:24.625Z,8.8
2023-11-25T10:39:24.629Z,10
2023-11-25T10:42:24.638Z,9.6
2023-11-25T10:45:24.633Z,8.7
2023-11-25T10:48:24.643Z,10.3
2023-11-25T10:51:24.639Z,8.9
2023-11-25T10:54:24.630Z,8.7
2023-11-25T10:57:24.640Z,9.8
2023-11-25T11:00:24.641Z,9.2
2023-11-25T11:03:24.677Z,9
2023-11-25T11:06:24.645Z,7.6
2023-11-25T11:09:24.643Z,9
2023-11-25T11:12:24.637Z,9.1
2023-11-25T11:15:24.647Z,6.7
2023-11-25T11:18:24.704Z,6.9
2023-11-25T11:21:24.655Z,6.9
2023-11-25T11:24:24.651Z,7
2023-11-25T11:27:24.657Z,8.1
2023-11-25T11:30:24.654Z,6.1
2023-11-25T11:33:24.686Z,5.9
2023-11-25T11:36:24.651Z,5.1
2023-11-25T11:39:24.665Z,6.4
2023-11-25T11:42:24.669Z,4.9
2023-11-25T11:45:24.663Z,6.5
2023-11-25T11:48:24.665Z,4.8
2023-11-25T11:51:24.667Z,5
2023-11-25T11:54:24.669Z,4.9
2023-11-25T11:57:24.669Z,5.8
2023-11-25T12:00:24.686Z,5.3
2023-11-25T12:03:24.709Z,6.3
2023-11-25T12:06:24.697Z,8.9
2023-11-25T12:09:24.684Z,5.4
2023-11-25T12:12:24.680Z,5.8
2023-11-25T12:15:24.680Z,6.2
2023-11-25T12:18:24.689Z,4.7
2023-11-25T12:21:24.684Z,6.3
2023-11-25T12:24:24.689Z,5.4
2023-11-25T12:27:24.721Z,5.9
2023-11-25T12:30:24.699Z,5.2
2023-11-25T12:33:24.726Z,4.4
2023-11-25T12:36:24.696Z,6.7
2023-11-25T12:39:24.721Z,6.8
2023-11-25T12:42:24.715Z,7
2023-11-25T12:45:24.707Z,5.7
2023-11-25T12:48:24.749Z,6.1
2023-11-25T12:51:24.719Z,6
2023-11-25T12:54:24.723Z,7.4
2023-11-25T12:57:24.725Z,6.4
2023-11-25T13:00:24.746Z,5.6
2023-11-25T13:03:24.897Z,5
2023-11-25T13:06:24.719Z,5.6
2023-11-25T13:09:24.734Z,7.6
2023-11-25T13:12:24.729Z,5.1
2023-11-25T13:15:24.724Z,7
2023-11-25T13:18:24.752Z,8.2
2023-11-25T13:21:24.734Z,8.2
2023-11-25T13:24:24.742Z,6.4
2023-11-25T13:27:24.739Z,6
2023-11-25T13:30:24.735Z,9
2023-11-25T13:33:24.820Z,8.4
2023-11-25T13:36:24.756Z,7.9
2023-11-25T13:39:24.741Z,9.4
2023-11-25T13:42:24.742Z,7.4
2023-11-25T13:45:24.750Z,8.4
2023-11-25T13:48:24.752Z,8.8
2023-11-25T13:51:24.760Z,6.9
2023-11-25T13:54:24.739Z,7.4
2023-11-25T13:57:24.746Z,10.2
2023-11-25T14:00:27.422Z,7.3
2023-11-25T14:03:24.810Z,10.7
2023-11-25T14:06:24.742Z,10.1
2023-11-25T14:09:24.748Z,8.8
2023-11-25T14:12:24.755Z,7.8
2023-11-25T14:15:24.747Z,6.7
2023-11-25T14:18:24.789Z,6.6
2023-11-25T14:21:24.768Z,7.5
2023-11-25T14:24:24.757Z,8.8
2023-11-25T14:27:24.756Z,9
2023-11-25T14:30:24.765Z,7.4
2023-11-25T14:33:24.810Z,7.9
2023-11-25T14:36:24.759Z,9.9
2023-11-25T14:39:24.770Z,8.2
2023-11-25T14:42:24.835Z,6.2
2023-11-25T14:45:24.784Z,7.7
2023-11-25T14:48:24.808Z,9.5
2023-11-25T14:51:24.771Z,10.1
2023-11-25T14:54:24.772Z,8.8
2023-11-25T14:57:24.783Z,9.8
2023-11-25T15:00:24.778Z,9.1
2023-11-25T15:03:24.828Z,7.5
2023-11-25T15:06:24.818Z,9.2
2023-11-25T15:09:24.813Z,8
2023-11-25T15:12:24.818Z,7.8
2023-11-25T15:15:24.789Z,9.9
2023-11-25T15:18:24.838Z,7.3
2023-11-25T15:21:24.807Z,11.3
2023-11-25T15:24:24.799Z,8.7
2023-11-25T15:27:24.808Z,11.8
2023-11-25T15:30:24.803Z,9.9
2023-11-25T15:33:24.797Z,9.3
2023-11-25T15:36:24.812Z,8.8
2023-11-25T15:39:24.819Z,11.4
2023-11-25T15:42:24.811Z,9.3
2023-11-25T15:45:24.820Z,11.6
2023-11-25T15:48:24.826Z,9.3
2023-11-25T15:51:24.822Z,8.6
2023-11-25T15:54:24.817Z,7.2
2023-11-25T15:57:24.823Z,9.1
2023-11-25T16:00:24.836Z,8.2
2023-11-25T16:03:24.865Z,8.6
2023-11-25T16:06:24.822Z,8.5
2023-11-25T16:09:24.831Z,5.3
2023-11-25T16:12:26.565Z,4.4
2023-11-25T16:15:24.840Z,4.3
2023-11-25T16:18:26.176Z,2.8
2023-11-25T16:21:24.827Z,3.6
2023-11-25T16:24:24.832Z,3.7
2023-11-25T16:27:24.833Z,4.6
2023-11-25T16:30:24.850Z,3.1
2023-11-25T16:33:24.851Z,6
2023-11-25T16:36:24.844Z,3.7
2023-11-25T16:39:24.846Z,5.9
2023-11-25T16:42:24.849Z,4.4
2023-11-25T16:45:24.850Z,2.8
2023-11-25T16:48:29.600Z,3.3
2023-11-25T16:51:24.853Z,4.3
2023-11-25T16:54:24.857Z,5.2
2023-11-25T16:57:24.859Z,5
2023-11-25T17:00:24.865Z,4.6
2023-11-25T17:03:25.145Z,4.7
2023-11-25T17:06:24.858Z,6.1
2023-11-25T17:09:24.859Z,6.4
2023-11-25T17:12:24.856Z,9.5
2023-11-25T17:15:24.869Z,8.3
2023-11-25T17:18:24.865Z,4.6
2023-11-25T17:21:24.863Z,5.7
2023-11-25T17:24:24.875Z,4
2023-11-25T17:27:24.874Z,5.5
2023-11-25T17:30:24.879Z,5.5
2023-11-25T17:33:24.887Z,5.6
2023-11-25T17:36:24.879Z,5.1
2023-11-25T17:39:24.882Z,3.8
2023-11-25T17:42:24.900Z,7.4
2023-11-25T17:45:24.886Z,4.5
2023-11-25T17:48:24.881Z,4.2
2023-11-25T17:51:24.895Z,4.9
2023-11-25T17:54:24.887Z,5.3
2023-11-25T17:57:24.889Z,4.3
2023-11-25T18:00:24.890Z,4.1
2023-11-25T18:03:24.941Z,6.6
2023-11-25T18:06:24.894Z,5.6
2023-11-25T18:09:24.917Z,5.7
2023-11-25T18:12:24.900Z,5.8
2023-11-25T18:15:24.903Z,7
2023-11-25T18:18:24.968Z,6.7
2023-11-25T18:21:24.895Z,4.9
2023-11-25T18:24:24.910Z,5.9
2023-11-25T18:27:24.926Z,6
2023-11-25T18:30:24.921Z,6.2
2023-11-25T18:33:24.921Z,5.8
2023-11-25T18:36:24.950Z,7.4
2023-11-25T18:39:24.911Z,6.6
2023-11-25T18:42:24.912Z,6
2023-11-25T18:45:24.922Z,7.9
2023-11-25T18:48:24.926Z,7.4
2023-11-25T18:51:24.919Z,6.4
2023-11-25T18:54:24.928Z,6.7
2023-11-25T18:57:24.935Z,6.6
2023-11-25T19:00:24.936Z,6
2023-11-25T19:03:24.970Z,7.8
2023-11-25T19:06:24.941Z,6.8
2023-11-25T19:09:24.930Z,7.1
2023-11-25T19:12:24.954Z,6.9
2023-11-25T19:15:24.938Z,6.4
2023-11-25T19:18:24.999Z,7.8
2023-11-25T19:21:24.941Z,7.1
2023-11-25T19:24:24.962Z,6.4
2023-11-25T19:27:24.950Z,7.1
2023-11-25T19:30:24.951Z,7.2
2023-11-25T19:33:25.010Z,9.6
2023-11-25T19:36:24.956Z,7.7
2023-11-25T19:39:24.975Z,6.6
2023-11-25T19:42:24.973Z,4.6
2023-11-25T19:45:24.956Z,4.6
2023-11-25T19:48:25.031Z,6
2023-11-25T19:51:24.973Z,5.7
2023-11-25T19:54:24.959Z,6.4
2023-11-25T19:57:24.966Z,6.5
2023-11-25T20:00:24.964Z,5.3
2023-11-25T20:03:25.075Z,5.4
2023-11-25T20:06:24.972Z,5
2023-11-25T20:09:24.967Z,5.9
2023-11-25T20:12:24.990Z,5.7
2023-11-25T20:15:24.979Z,5.5
2023-11-25T20:18:24.985Z,7.2
2023-11-25T20:21:24.993Z,6.3
2023-11-25T20:24:25.018Z,5.1
2023-11-25T20:27:24.999Z,6.3
2023-11-25T20:30:25.003Z,4.8
2023-11-25T20:33:25.035Z,4.6
2023-11-25T20:36:25.002Z,5.3
2023-11-25T20:39:24.996Z,4.3
2023-11-25T20:42:24.999Z,4.9
2023-11-25T20:45:25.024Z,5.6
2023-11-25T20:48:24.999Z,5.7
2023-11-25T20:51:25.009Z,4.5
2023-11-25T20:54:25.018Z,4.8
2023-11-25T20:57:25.023Z,5.4
2023-11-25T21:00:25.011Z,5.5
2023-11-25T21:03:25.103Z,6.8
2023-11-25T21:06:25.018Z,6.1
2023-11-25T21:09:25.022Z,5.1
2023-11-25T21:12:25.009Z,4.3
2023-11-25T21:15:25.025Z,5.7
2023-11-25T21:18:25.021Z,5.5
2023-11-25T21:21:25.030Z,5.9
2023-11-25T21:24:25.048Z,5.4
2023-11-25T21:27:25.045Z,6.6
2023-11-25T21:30:25.026Z,5.1
2023-11-25T21:33:25.098Z,6.1
2023-11-25T21:36:25.035Z,5.4
2023-11-25T21:39:25.045Z,9.3
2023-11-25T21:42:25.040Z,6.4
2023-11-25T21:45:25.051Z,6.4
2023-11-25T21:48:25.063Z,6.7
2023-11-25T21:51:25.045Z,8.8
2023-11-25T21:54:25.055Z,6.5
2023-11-25T21:57:25.050Z,7.6
2023-11-25T22:00:25.063Z,6.4
2023-11-25T22:03:25.201Z,6.8
2023-11-25T22:06:25.093Z,6.6
2023-11-25T22:09:25.065Z,7
2023-11-25T22:12:25.074Z,10.9
2023-11-25T22:15:25.115Z,7.4
2023-11-25T22:18:25.072Z,9.2
2023-11-25T22:21:25.094Z,9.1
2023-11-25T22:24:25.082Z,8.5
2023-11-25T22:27:25.080Z,7
2023-11-25T22:30:25.261Z,7.3
2023-11-25T22:33:25.124Z,6.5
2023-11-25T22:36:25.200Z,7.8
2023-11-25T22:39:25.108Z,9
2023-11-25T22:42:25.105Z,5.6
2023-11-25T22:45:25.109Z,6.6
2023-11-25T22:48:25.095Z,6.7
2023-11-25T22:51:25.144Z,8
2023-11-25T22:54:25.114Z,6.3
2023-11-25T22:57:25.117Z,6.3
2023-11-25T23:00:25.109Z,7.3
2023-11-25T23:03:25.186Z,6.9
2023-11-25T23:06:25.138Z,7.6
2023-11-25T23:09:25.129Z,8.2
2023-11-25T23:12:25.112Z,6.1
2023-11-25T23:15:25.116Z,7
2023-11-25T23:18:25.111Z,7.8
2023-11-25T23:21:25.124Z,6.8
2023-11-25T23:24:25.119Z,10.7
2023-11-25T23:27:25.126Z,7.2
2023-11-25T23:30:25.130Z,7.5
2023-11-25T23:33:25.151Z,9.2
2023-11-25T23:36:25.150Z,7.7
2023-11-25T23:39:25.135Z,7.7
2023-11-25T23:42:25.151Z,6.5
2023-11-25T23:45:25.152Z,6.9
2023-11-25T23:48:25.160Z,6.8
2023-11-25T23:51:25.170Z,7.7
2023-11-25T23:54:25.146Z,7.5
2023-11-25T23:57:25.173Z,8.5
